createdAt,value
2022-08-27T00:03:33.200Z,3.15
2022-08-27T00:08:37.114Z,5.70
2022-08-27T00:13:38.908Z,3.88
2022-08-27T00:18:41.693Z,4.13
2022-08-27T00:23:43.730Z,3.80
2022-08-27T00:28:45.883Z,3.33
2022-08-27T00:33:47.556Z,4.10
2022-08-27T00:38:49.724Z,4.97
2022-08-27T00:43:58.078Z,5.85
2022-08-27T00:49:16.206Z,6.35
2022-08-27T00:54:19.001Z,5.53
2022-08-27T00:59:24.183Z,3.78
2022-08-27T01:04:26.352Z,5.28
2022-08-27T01:09:28.465Z,3.33
2022-08-27T01:14:30.481Z,2.88
2022-08-27T01:19:41.174Z,5.57
2022-08-27T01:24:46.821Z,3.90
2022-08-27T01:29:50.590Z,7.13
2022-08-27T01:34:53.912Z,5.15
2022-08-27T01:39:59.128Z,4.35
2022-08-27T01:45:06.279Z,5.18
2022-08-27T01:50:12.649Z,7.57
2022-08-27T01:55:19.033Z,7.03
2022-08-27T02:00:25.010Z,5.45
2022-08-27T02:05:28.350Z,4.38
2022-08-27T02:10:39.293Z,4.53
2022-08-27T02:15:43.135Z,6.10
2022-08-27T02:20:46.647Z,4.32
2022-08-27T02:25:48.479Z,2.78
2022-08-27T02:30:50.247Z,3.58
2022-08-27T02:35:52.088Z,2.88
2022-08-27T02:40:54.112Z,3.35
2022-08-27T02:45:56.053Z,2.58
2022-08-27T02:50:57.782Z,2.90
2022-08-27T02:55:59.766Z,3.47
2022-08-27T03:01:02.536Z,2.47
2022-08-27T03:06:04.555Z,2.00
2022-08-27T03:11:08.254Z,1.23
2022-08-27T03:16:11.799Z,2.95
2022-08-27T03:21:24.726Z,2.22
2022-08-27T03:26:29.021Z,4.57
2022-08-27T03:31:31.309Z,3.50
2022-08-27T03:36:33.445Z,3.00
2022-08-27T03:41:47.217Z,2.28
2022-08-27T03:46:57.570Z,3.10
2022-08-27T03:51:59.618Z,2.30
2022-08-27T03:57:01.318Z,1.92
2022-08-27T04:02:03.226Z,2.40
2022-08-27T04:07:05.056Z,4.63
2022-08-27T04:12:06.970Z,3.97
2022-08-27T04:17:08.706Z,5.32
2022-08-27T04:22:10.664Z,5.47
2022-08-27T04:27:14.548Z,5.18
2022-08-27T04:32:16.281Z,5.65
2022-08-27T04:37:23.227Z,3.22
2022-08-27T04:42:25.510Z,4.60
2022-08-27T04:47:27.279Z,2.55
2022-08-27T04:52:29.008Z,4.63
2022-08-27T04:57:30.700Z,6.65
2022-08-27T05:02:32.403Z,5.80
2022-08-27T05:07:34.299Z,4.72
2022-08-27T05:12:36.063Z,5.50
2022-08-27T05:17:37.777Z,6.22
2022-08-27T05:22:39.742Z,6.03
2022-08-27T05:27:41.382Z,3.72
2022-08-27T05:32:43.356Z,2.83
2022-08-27T05:37:45.185Z,7.47
2022-08-27T05:42:50.052Z,5.63
2022-08-27T05:47:52.972Z,5.28
2022-08-27T05:52:54.818Z,6.90
2022-08-27T05:57:56.550Z,5.80
2022-08-27T06:02:58.360Z,3.72
2022-08-27T06:08:00.191Z,2.65
2022-08-27T06:13:03.518Z,4.13
2022-08-27T06:18:05.341Z,4.40
2022-08-27T06:23:07.145Z,4.60
2022-08-27T06:28:08.837Z,3.85
2022-08-27T06:33:10.710Z,3.55
2022-08-27T06:38:12.486Z,3.90
2022-08-27T06:43:14.249Z,3.67
2022-08-27T06:48:16.248Z,5.53
2022-08-27T06:53:18.034Z,11.90
2022-08-27T06:58:25.996Z,5.35
2022-08-27T07:03:28.019Z,3.47
2022-08-27T07:08:29.790Z,2.97
2022-08-27T07:13:31.632Z,3.55
2022-08-27T07:18:34.630Z,3.50
2022-08-27T07:23:38.043Z,4.53
2022-08-27T07:28:40.941Z,3.20
2022-08-27T07:33:46.249Z,3.95
2022-08-27T07:39:00.971Z,4.68
2022-08-27T07:44:25.970Z,8.27
2022-08-27T07:49:29.077Z,2.95
2022-08-27T07:54:31.897Z,2.15
2022-08-27T07:59:33.590Z,3.80
2022-08-27T08:04:35.860Z,5.00
2022-08-27T08:09:37.677Z,2.95
2022-08-27T08:14:39.336Z,4.82
2022-08-27T08:19:41.269Z,4.35
2022-08-27T08:24:43.137Z,2.22
2022-08-27T08:29:45.770Z,3.53
2022-08-27T08:34:48.064Z,3.42
2022-08-27T08:39:49.872Z,2.92
2022-08-27T08:44:55.367Z,3.35
2022-08-27T08:50:19.675Z,2.75
2022-08-27T08:55:37.399Z,3.30
2022-08-27T09:00:42.454Z,4.13
2022-08-27T09:05:50.923Z,2.30
2022-08-27T09:10:55.754Z,6.70
2022-08-27T09:16:01.165Z,2.78
2022-08-27T09:21:15.270Z,3.03
2022-08-27T09:26:20.080Z,4.13
2022-08-27T09:31:21.982Z,2.88
2022-08-27T09:36:24.670Z,8.07
2022-08-27T09:41:33.348Z,3.42
2022-08-27T09:46:35.416Z,5.43
2022-08-27T09:51:41.800Z,3.30
2022-08-27T09:56:49.337Z,3.35
2022-08-27T10:02:03.003Z,3.08
2022-08-27T10:07:47.021Z,3.00
2022-08-27T10:12:58.864Z,4.53
2022-08-27T10:18:10.497Z,1.48
2022-08-27T10:23:31.406Z,3.42
2022-08-27T10:28:47.624Z,3.58
2022-08-27T10:34:21.200Z,3.60
2022-08-27T10:39:42.735Z,5.25
2022-08-27T10:45:04.470Z,3.10
2022-08-27T10:50:26.268Z,2.92
2022-08-27T10:55:40.579Z,1.92
2022-08-27T11:01:00.542Z,3.03
2022-08-27T11:06:22.187Z,2.63
2022-08-27T11:17:32.612Z,4.57
2022-08-27T11:22:56.737Z,3.63
2022-08-27T11:28:02.711Z,6.60
2022-08-27T11:33:07.298Z,3.05
2022-08-27T11:38:30.031Z,3.38
2022-08-27T11:43:35.712Z,4.65
2022-08-27T11:48:43.180Z,2.05
2022-08-27T11:54:00.179Z,5.82
2022-08-27T11:59:26.567Z,1.60
2022-08-27T12:04:31.447Z,2.60
2022-08-27T12:09:59.442Z,5.05
2022-08-27T12:15:13.250Z,2.80
2022-08-27T12:20:36.372Z,2.20
2022-08-27T12:25:38.262Z,3.42
2022-08-27T12:30:49.813Z,1.92
2022-08-27T12:35:55.137Z,2.65
2022-08-27T12:41:03.899Z,2.25
2022-08-27T12:46:08.700Z,1.45
2022-08-27T12:51:22.471Z,3.90
2022-08-27T12:56:49.919Z,3.25
2022-08-27T13:01:55.380Z,2.17
2022-08-27T13:06:58.272Z,2.28
2022-08-27T13:12:02.432Z,2.28
2022-08-27T13:17:10.130Z,3.35
2022-08-27T13:22:20.599Z,1.92
2022-08-27T13:27:31.422Z,2.28
2022-08-27T13:32:33.725Z,2.25
2022-08-27T13:37:41.605Z,5.90
2022-08-27T13:42:45.309Z,0.28
2022-08-27T13:47:49.195Z,2.80
2022-08-27T13:53:12.019Z,1.15
2022-08-27T13:58:19.212Z,4.10
2022-08-27T14:03:39.062Z,2.83
2022-08-27T14:08:40.936Z,3.63
2022-08-27T14:13:47.679Z,3.60
2022-08-27T14:18:59.262Z,3.38
2022-08-27T14:24:02.121Z,0.77
2022-08-27T14:29:04.053Z,3.05
2022-08-27T14:34:14.751Z,2.13
2022-08-27T14:39:16.546Z,2.63
2022-08-27T14:44:18.299Z,2.03
2022-08-27T14:49:31.314Z,2.28
2022-08-27T14:54:33.802Z,3.88
2022-08-27T14:59:37.864Z,2.47
2022-08-27T15:04:39.782Z,3.30
2022-08-27T15:09:44.046Z,0.63
2022-08-27T15:14:45.763Z,4.43
2022-08-27T15:19:47.577Z,4.50
2022-08-27T15:24:54.484Z,4.63
2022-08-27T15:29:56.156Z,2.05
2022-08-27T15:34:59.181Z,1.98
2022-08-27T15:40:02.187Z,4.15
2022-08-27T15:45:06.956Z,1.55
2022-08-27T15:50:08.835Z,1.25
2022-08-27T15:55:21.005Z,4.90
2022-08-27T16:00:24.114Z,3.13
2022-08-27T16:05:30.542Z,5.28
2022-08-27T16:10:32.337Z,3.92
2022-08-27T16:15:39.514Z,5.65
2022-08-27T16:20:42.004Z,5.47
2022-08-27T16:25:43.796Z,7.55
2022-08-27T16:30:45.645Z,5.95
2022-08-27T16:35:48.323Z,3.70
2022-08-27T16:40:52.976Z,2.60
2022-08-27T16:45:58.582Z,3.63
2022-08-27T16:51:00.982Z,3.35
2022-08-27T16:56:03.168Z,1.17
2022-08-27T17:01:08.389Z,2.17
2022-08-27T17:06:10.666Z,4.00
2022-08-27T17:11:16.125Z,3.72
2022-08-27T17:16:21.361Z,4.47
2022-08-27T17:21:25.543Z,5.50
2022-08-27T17:26:32.751Z,3.65
2022-08-27T17:31:37.659Z,6.28
2022-08-27T17:36:39.439Z,3.15
2022-08-27T17:41:44.386Z,3.25
2022-08-27T17:46:46.489Z,5.97
2022-08-27T17:51:49.795Z,6.47
2022-08-27T17:56:51.591Z,7.07
2022-08-27T18:01:53.544Z,4.32
2022-08-27T18:06:55.323Z,5.45
2022-08-27T18:11:58.208Z,6.55
2022-08-27T18:17:00.277Z,4.43
2022-08-27T18:22:01.966Z,5.25
2022-08-27T18:27:03.775Z,8.27
2022-08-27T18:32:05.566Z,6.82
2022-08-27T18:37:07.640Z,7.63
2022-08-27T18:42:10.421Z,7.50
2022-08-27T18:47:12.818Z,5.30
2022-08-27T18:52:23.076Z,5.03
2022-08-27T18:57:24.813Z,6.47
2022-08-27T19:02:27.520Z,6.35
2022-08-27T19:07:29.927Z,7.65
2022-08-27T19:12:31.880Z,6.47
2022-08-27T19:17:36.215Z,8.82
2022-08-27T19:22:47.878Z,4.70
2022-08-27T19:27:51.687Z,8.15
2022-08-27T19:32:54.625Z,8.40
2022-08-27T19:37:57.021Z,6.78
2022-08-27T19:42:59.682Z,5.88
2022-08-27T19:48:01.818Z,8.02
2022-08-27T19:53:03.960Z,7.15
2022-08-27T19:58:09.082Z,6.85
2022-08-27T20:03:12.371Z,5.93
2022-08-27T20:08:14.650Z,7.97
2022-08-27T20:13:17.784Z,8.68
2022-08-27T20:18:21.738Z,7.13
2022-08-27T20:23:26.502Z,9.05
2022-08-27T20:28:46.057Z,7.95
2022-08-27T20:33:49.712Z,9.18
2022-08-27T20:38:52.578Z,9.18
2022-08-27T20:43:57.698Z,8.30
2022-08-27T20:49:06.681Z,10.32
2022-08-27T20:54:08.405Z,6.65
2022-08-27T20:59:29.347Z,5.50
2022-08-27T21:04:49.531Z,7.45
2022-08-27T21:09:55.833Z,6.57
2022-08-27T21:15:00.863Z,8.23
2022-08-27T21:20:08.496Z,12.00
2022-08-27T21:25:12.817Z,7.40
2022-08-27T21:30:14.546Z,8.25
2022-08-27T21:35:16.450Z,8.23
2022-08-27T21:40:20.162Z,7.15
2022-08-27T21:45:23.053Z,9.57
2022-08-27T21:50:25.106Z,10.43
2022-08-27T21:55:26.832Z,6.55
2022-08-27T22:00:28.941Z,10.93
2022-08-27T22:05:30.995Z,6.25
2022-08-27T22:10:32.987Z,8.00
2022-08-27T22:15:35.929Z,7.05
2022-08-27T22:20:38.131Z,7.25
2022-08-27T22:25:39.900Z,9.50
2022-08-27T22:30:42.154Z,10.57
2022-08-27T22:35:43.827Z,11.25
2022-08-27T22:40:45.725Z,6.55
2022-08-27T22:45:48.586Z,8.57
2022-08-27T22:50:50.281Z,5.07
2022-08-27T22:55:52.107Z,8.63
2022-08-27T23:00:54.972Z,7.45
2022-08-27T23:05:57.638Z,6.40
2022-08-27T23:10:59.547Z,7.85
2022-08-27T23:16:03.061Z,7.13
2022-08-27T23:21:06.066Z,5.95
2022-08-27T23:26:26.485Z,7.20
2022-08-27T23:31:28.219Z,6.85
2022-08-27T23:36:30.055Z,7.53
2022-08-27T23:41:31.767Z,4.65
2022-08-27T23:46:33.522Z,8.15
2022-08-27T23:51:35.263Z,7.13
2022-08-27T23:56:40.109Z,9.57
